Time;durP1;ratioP1;P1;durP2;ratioP2;P2;SDS_P1;SDS_P2;PMS_P1;PMS_P2;Temp;Humidity;BMP_temperature;BMP_pressure;BME280_temperature;BME280_humidity;BME280_pressure;Samples;Min_cycle;Max_cycle;Signal;HPM_P1;HPM_P2
2023/08/27 00:03:43;;;;;;;0.00;0.00;;;15.10;99.90;;;;;;8383794;28;20092;-80
2023/08/27 00:07:44;;;;;;;0.00;0.00;;;15.10;99.90;;;;;;8385508;28;20405;-81
2023/08/27 00:11:44;;;;;;;0.15;0.15;;;15.10;99.90;;;;;;8388210;28;20021;-78
2023/08/27 00:15:45;;;;;;;0.00;0.00;;;15.30;99.90;;;;;;8377513;28;20107;-80
2023/08/27 00:19:46;;;;;;;0.00;0.00;;;15.20;99.90;;;;;;8386847;28;20025;-81
2023/08/27 00:23:47;;;;;;;0.10;0.10;;;15.20;99.90;;;;;;8376848;28;20201;-81
2023/08/27 00:27:47;;;;;;;0.13;0.13;;;15.40;99.90;;;;;;8367073;28;20112;-81
2023/08/27 00:31:48;;;;;;;0.10;0.10;;;15.40;99.90;;;;;;8376925;28;20033;-81
2023/08/27 00:35:53;;;;;;;0.00;0.00;;;15.40;99.90;;;;;;8388391;28;20024;-80
2023/08/27 00:39:54;;;;;;;0.00;0.00;;;15.50;99.90;;;;;;8367398;28;20029;-81
2023/08/27 00:43:54;;;;;;;0.00;0.00;;;15.40;99.90;;;;;;8387674;28;20040;-80
2023/08/27 00:47:55;;;;;;;0.00;0.00;;;15.50;99.90;;;;;;8381662;28;20485;-81
2023/08/27 00:51:56;;;;;;;0.15;0.15;;;15.90;99.90;;;;;;8383004;28;20028;-81
2023/08/27 00:55:57;;;;;;;0.10;0.10;;;15.80;99.90;;;;;;8381274;28;20028;-80
2023/08/27 00:59:58;;;;;;;0.00;0.00;;;15.60;99.90;;;;;;8369996;28;20524;-80
2023/08/27 01:04:00;;;;;;;0.08;0.08;;;15.60;99.90;;;;;;8378214;28;20024;-80
2023/08/27 01:08:18;;;;;;;0.52;0.43;;;15.80;99.90;;;;;;8383452;28;20028;-79
2023/08/27 01:12:33;;;;;;;0.00;0.00;;;16.10;99.90;;;;;;8379983;28;20064;-80
2023/08/27 01:16:35;;;;;;;1.52;1.42;;;15.80;99.90;;;;;;8389397;28;20509;-80
2023/08/27 01:20:35;;;;;;;0.30;0.30;;;15.60;99.90;;;;;;8372509;28;20023;-81
2023/08/27 01:24:36;;;;;;;0.00;0.00;;;15.50;99.90;;;;;;8378306;28;20542;-81
2023/08/27 01:28:45;;;;;;;0.00;0.00;;;15.50;99.90;;;;;;8368498;28;20027;-81
2023/08/27 01:32:55;;;;;;;0.00;0.00;;;15.50;99.90;;;;;;8377178;28;20036;-80
2023/08/27 01:36:57;;;;;;;0.10;0.10;;;15.70;99.90;;;;;;8376841;28;20362;-80
2023/08/27 01:40:58;;;;;;;0.00;0.00;;;16.00;99.90;;;;;;8386084;28;20032;-80
2023/08/27 01:44:59;;;;;;;0.35;0.35;;;16.20;99.90;;;;;;8380370;28;20031;-80
2023/08/27 01:48:59;;;;;;;0.00;0.00;;;16.10;99.90;;;;;;8377483;28;20499;-80
2023/08/27 01:53:00;;;;;;;0.00;0.00;;;16.30;99.90;;;;;;8372880;28;20061;-80
2023/08/27 01:57:01;;;;;;;0.10;0.10;;;16.00;99.90;;;;;;8385628;28;20016;-79
2023/08/27 02:01:02;;;;;;;0.00;0.00;;;15.80;99.90;;;;;;8370776;28;20021;-79
2023/08/27 02:05:06;;;;;;;0.00;0.00;;;15.70;99.90;;;;;;8361440;28;20033;-79
2023/08/27 02:09:06;;;;;;;0.05;0.05;;;15.80;99.90;;;;;;8389809;28;20025;-80
2023/08/27 02:13:07;;;;;;;0.00;0.00;;;15.70;99.90;;;;;;8378871;28;20025;-79
2023/08/27 02:17:07;;;;;;;0.00;0.00;;;15.60;99.90;;;;;;8376840;28;20469;-78
2023/08/27 02:21:08;;;;;;;0.00;0.00;;;15.80;99.90;;;;;;8370502;28;20021;-78
2023/08/27 02:25:10;;;;;;;0.20;0.20;;;15.70;99.90;;;;;;8371160;28;20029;-79
2023/08/27 02:29:10;;;;;;;0.00;0.00;;;15.70;99.90;;;;;;8377208;28;20064;-79
2023/08/27 02:33:12;;;;;;;0.00;0.00;;;15.70;99.90;;;;;;8366856;28;20061;-78
2023/08/27 02:37:12;;;;;;;0.68;0.68;;;15.60;99.90;;;;;;8370808;28;20068;-78
2023/08/27 02:41:13;;;;;;;0.00;0.00;;;15.70;99.90;;;;;;8397405;28;20055;-80
2023/08/27 02:45:14;;;;;;;0.10;0.10;;;15.70;99.90;;;;;;8371245;28;20025;-79
2023/08/27 02:49:14;;;;;;;0.00;0.00;;;15.70;99.90;;;;;;8396377;28;20351;-79
2023/08/27 02:53:15;;;;;;;0.00;0.00;;;15.60;99.90;;;;;;8382308;28;20017;-79
2023/08/27 02:57:15;;;;;;;0.00;0.00;;;15.70;99.90;;;;;;8385415;28;20025;-79
2023/08/27 03:01:18;;;;;;;0.00;0.00;;;15.60;99.90;;;;;;8379480;28;20083;-79
2023/08/27 03:05:19;;;;;;;0.00;0.00;;;15.60;99.90;;;;;;8380285;28;20021;-76
2023/08/27 03:09:19;;;;;;;0.00;0.00;;;15.70;99.90;;;;;;8373940;28;20024;-78
2023/08/27 03:13:20;;;;;;;0.00;0.00;;;15.70;99.90;;;;;;8391161;28;20035;-79
2023/08/27 03:17:20;;;;;;;0.00;0.00;;;15.70;99.90;;;;;;8374459;28;20025;-79
2023/08/27 03:21:21;;;;;;;0.10;0.10;;;15.60;99.90;;;;;;8406366;22;20040;-84
2023/08/27 03:25:22;;;;;;;0.10;0.10;;;15.60;99.90;;;;;;8397843;28;20059;-83
2023/08/27 03:29:22;;;;;;;0.10;0.10;;;15.50;99.90;;;;;;8392753;28;20021;-84
2023/08/27 03:33:23;;;;;;;0.00;0.00;;;15.50;99.90;;;;;;8363793;28;20090;-84
2023/08/27 03:37:23;;;;;;;0.00;0.00;;;15.50;99.90;;;;;;8388321;28;20042;-84
2023/08/27 03:41:24;;;;;;;0.00;0.00;;;15.50;99.90;;;;;;8361827;28;20036;-84
2023/08/27 03:45:24;;;;;;;0.00;0.00;;;15.50;99.90;;;;;;8361781;28;20489;-84
2023/08/27 03:49:25;;;;;;;0.00;0.00;;;15.50;99.90;;;;;;8366806;28;20280;-84
2023/08/27 03:53:25;;;;;;;0.00;0.00;;;15.60;99.90;;;;;;8353902;28;20404;-83
2023/08/27 03:57:26;;;;;;;0.00;0.00;;;15.50;99.90;;;;;;8363090;28;20024;-84
2023/08/27 04:01:26;;;;;;;0.03;0.03;;;15.50;99.90;;;;;;8372046;28;20012;-84
2023/08/27 04:05:27;;;;;;;0.00;0.00;;;15.60;99.90;;;;;;8370115;28;20021;-84
2023/08/27 04:09:27;;;;;;;0.00;0.00;;;15.60;99.90;;;;;;8358858;28;20488;-84
2023/08/27 04:13:28;;;;;;;0.00;0.00;;;15.70;99.90;;;;;;8392808;28;20440;-84
2023/08/27 04:17:29;;;;;;;0.03;0.03;;;15.70;99.90;;;;;;8382505;28;20031;-83
2023/08/27 04:21:30;;;;;;;0.00;0.00;;;16.20;99.90;;;;;;8385936;28;20437;-82
2023/08/27 04:25:30;;;;;;;0.10;0.10;;;16.10;99.90;;;;;;8380007;28;20030;-83
2023/08/27 04:29:31;;;;;;;0.00;0.00;;;15.90;99.90;;;;;;8379652;28;20017;-83
2023/08/27 04:33:32;;;;;;;0.10;0.10;;;15.80;99.90;;;;;;8384011;28;20017;-83
2023/08/27 04:37:32;;;;;;;1.75;0.80;;;15.90;99.90;;;;;;8367507;28;20424;-83
2023/08/27 04:41:33;;;;;;;0.03;0.03;;;15.80;99.90;;;;;;8345976;28;20025;-83
2023/08/27 04:45:34;;;;;;;0.00;0.00;;;15.80;99.90;;;;;;8379592;28;20025;-83
2023/08/27 04:49:35;;;;;;;0.00;0.00;;;15.80;99.90;;;;;;8343102;28;20029;-84
2023/08/27 04:53:36;;;;;;;0.80;0.80;;;15.80;99.90;;;;;;8345992;28;20028;-83
2023/08/27 04:57:37;;;;;;;0.00;0.00;;;15.90;99.90;;;;;;8344999;28;20502;-84
2023/08/27 05:01:37;;;;;;;0.00;0.00;;;15.90;99.90;;;;;;8381803;28;20027;-84
2023/08/27 05:05:39;;;;;;;0.00;0.00;;;15.80;99.90;;;;;;8348235;28;20021;-84
2023/08/27 05:09:45;;;;;;;0.05;0.05;;;15.80;99.90;;;;;;8355524;28;20024;-84
2023/08/27 05:13:46;;;;;;;0.00;0.00;;;15.80;99.90;;;;;;8356302;28;20499;-85
2023/08/27 05:17:48;;;;;;;0.00;0.00;;;15.90;99.90;;;;;;8356521;28;20017;-84
2023/08/27 05:21:48;;;;;;;0.10;0.10;;;15.80;99.90;;;;;;8353535;28;20075;-85
2023/08/27 05:25:49;;;;;;;0.00;0.00;;;16.00;99.90;;;;;;8346666;28;20186;-86
2023/08/27 05:29:49;;;;;;;0.00;0.00;;;16.00;99.90;;;;;;8365032;28;20036;-87
2023/08/27 05:33:50;;;;;;;0.00;0.00;;;16.00;99.90;;;;;;8343151;28;20037;-86
2023/08/27 05:37:51;;;;;;;0.10;0.10;;;16.10;99.90;;;;;;8367756;28;20021;-86
2023/08/27 05:41:51;;;;;;;0.00;0.00;;;16.10;99.90;;;;;;8346976;28;20033;-87
2023/08/27 05:45:52;;;;;;;0.00;0.00;;;16.10;99.90;;;;;;8347475;28;20067;-86
2023/08/27 05:49:53;;;;;;;0.03;0.03;;;16.20;99.90;;;;;;8343502;28;20028;-86
2023/08/27 05:53:53;;;;;;;0.00;0.00;;;16.10;99.90;;;;;;8340442;28;20116;-86
2023/08/27 05:57:54;;;;;;;0.00;0.00;;;16.20;99.90;;;;;;8343451;28;20037;-86
2023/08/27 06:01:54;;;;;;;0.00;0.00;;;16.10;99.90;;;;;;8363117;28;20382;-87
2023/08/27 06:05:55;;;;;;;0.00;0.00;;;16.00;99.90;;;;;;8352758;28;20464;-87
2023/08/27 06:09:56;;;;;;;0.00;0.00;;;16.00;99.90;;;;;;8357193;28;20051;-87
2023/08/27 06:14:00;;;;;;;0.10;0.10;;;15.90;99.90;;;;;;8345539;28;20489;-87
2023/08/27 06:18:03;;;;;;;0.00;0.00;;;15.90;99.90;;;;;;8350316;28;20033;-87
2023/08/27 06:22:03;;;;;;;0.00;0.00;;;16.00;99.90;;;;;;8348269;28;20024;-86
2023/08/27 06:26:05;;;;;;;0.00;0.00;;;16.00;99.90;;;;;;8366596;28;20295;-90
2023/08/27 06:30:06;;;;;;;0.00;0.00;;;16.00;99.90;;;;;;8350851;28;20036;-87
2023/08/27 06:34:06;;;;;;;0.10;0.10;;;15.90;99.90;;;;;;8361278;28;20162;-87
2023/08/27 06:38:07;;;;;;;0.00;0.00;;;15.80;99.90;;;;;;8358283;28;20373;-87
2023/08/27 06:42:07;;;;;;;7.32;2.92;;;15.80;99.90;;;;;;8341855;28;20484;-87
2023/08/27 06:46:10;;;;;;;0.00;0.00;;;15.70;99.90;;;;;;8389139;28;20039;-87
2023/08/27 06:50:11;;;;;;;0.93;0.88;;;15.70;99.90;;;;;;8363385;28;20494;-86
2023/08/27 06:54:12;;;;;;;0.00;0.00;;;15.70;99.90;;;;;;8374066;28;20025;-86
2023/08/27 06:58:12;;;;;;;0.00;0.00;;;15.70;99.90;;;;;;8348451;28;20426;-86
2023/08/27 07:02:14;;;;;;;0.08;0.08;;;15.70;99.90;;;;;;8333170;28;20072;-87
2023/08/27 07:06:14;;;;;;;0.00;0.00;;;15.80;99.90;;;;;;8340618;28;20152;-87
2023/08/27 07:10:15;;;;;;;0.08;0.08;;;16.00;99.90;;;;;;8327548;28;20079;-86
2023/08/27 07:14:15;;;;;;;5.22;0.77;;;16.00;99.90;;;;;;8335811;28;20036;-86
2023/08/27 07:18:16;;;;;;;0.10;0.10;;;16.00;99.90;;;;;;8343495;28;20021;-86
2023/08/27 07:22:17;;;;;;;0.10;0.10;;;16.50;99.90;;;;;;8332193;28;20049;-86
2023/08/27 07:26:17;;;;;;;0.08;0.08;;;16.90;99.90;;;;;;8325602;28;20029;-87
2023/08/27 07:30:18;;;;;;;0.00;0.00;;;16.80;99.90;;;;;;8347334;28;20500;-87
2023/08/27 07:34:18;;;;;;;0.00;0.00;;;16.70;99.90;;;;;;8327745;28;20029;-88
2023/08/27 07:38:19;;;;;;;0.03;0.03;;;16.60;99.90;;;;;;8334994;28;20398;-88
2023/08/27 07:42:21;;;;;;;0.00;0.00;;;16.40;99.90;;;;;;8320802;28;20112;-88
2023/08/27 07:46:22;;;;;;;0.13;0.13;;;16.30;99.90;;;;;;8331074;28;20036;-87
2023/08/27 07:50:22;;;;;;;0.00;0.00;;;16.40;99.90;;;;;;8330507;28;20107;-87
2023/08/27 07:54:23;;;;;;;0.00;0.00;;;16.40;99.90;;;;;;8335141;28;20056;-87
2023/08/27 07:58:23;;;;;;;0.00;0.00;;;16.40;99.90;;;;;;8332454;28;20382;-88
2023/08/27 08:02:24;;;;;;;0.10;0.10;;;16.80;99.90;;;;;;8332539;28;20027;-88
2023/08/27 08:06:25;;;;;;;0.10;0.10;;;16.90;99.90;;;;;;8322368;28;20048;-87
2023/08/27 08:10:26;;;;;;;0.00;0.00;;;16.80;99.90;;;;;;8321958;28;20029;-89
2023/08/27 08:14:27;;;;;;;0.00;0.00;;;16.80;99.90;;;;;;8327195;28;20021;-87
2023/08/27 08:18:27;;;;;;;0.10;0.10;;;16.70;99.90;;;;;;8343654;28;20025;-86
2023/08/27 08:22:28;;;;;;;0.00;0.00;;;16.50;99.90;;;;;;8325202;28;20021;-86
2023/08/27 08:26:29;;;;;;;0.00;0.00;;;16.60;99.90;;;;;;8341041;28;21611;-87
2023/08/27 08:30:29;;;;;;;0.00;0.00;;;16.70;99.90;;;;;;8340052;28;20037;-87
2023/08/27 08:34:30;;;;;;;0.10;0.10;;;16.60;99.90;;;;;;8341803;28;20128;-87
2023/08/27 08:38:33;;;;;;;0.10;0.10;;;16.30;99.90;;;;;;8353639;28;20020;-87
2023/08/27 08:42:59;;;;;;;0.10;0.10;;;16.40;99.90;;;;;;8345872;28;20114;-87
2023/08/27 08:47:03;;;;;;;0.10;0.10;;;16.30;99.90;;;;;;8362409;28;20021;-86
2023/08/27 08:51:05;;;;;;;0.00;0.00;;;16.50;99.90;;;;;;8334992;28;20454;-87
2023/08/27 08:55:11;;;;;;;0.00;0.00;;;16.50;99.90;;;;;;8336292;28;20420;-86
2023/08/27 08:59:12;;;;;;;0.00;0.00;;;16.50;99.90;;;;;;8323106;28;20462;-87
2023/08/27 09:03:15;;;;;;;1.60;1.52;;;16.70;99.90;;;;;;8339846;28;20512;-87
2023/08/27 09:07:16;;;;;;;0.00;0.00;;;16.80;99.90;;;;;;8346226;28;20504;-88
2023/08/27 09:11:19;;;;;;;0.10;0.10;;;17.00;99.90;;;;;;8320897;28;20048;-86
2023/08/27 09:15:20;;;;;;;0.00;0.00;;;17.20;99.90;;;;;;8350669;28;20021;-86
2023/08/27 09:19:20;;;;;;;0.00;0.00;;;17.30;99.90;;;;;;8364812;22;20009;-80
2023/08/27 09:23:22;;;;;;;0.10;0.10;;;17.70;99.90;;;;;;8380540;28;20034;-80
2023/08/27 09:27:24;;;;;;;0.00;0.00;;;17.70;99.90;;;;;;8373125;28;20103;-80
2023/08/27 09:31:44;;;;;;;0.00;0.00;;;17.60;99.90;;;;;;8395666;28;20417;-80
2023/08/27 09:35:45;;;;;;;0.00;0.00;;;17.70;99.90;;;;;;8384375;28;20024;-80
2023/08/27 09:39:46;;;;;;;0.00;0.00;;;17.70;99.90;;;;;;8386327;28;20439;-80
2023/08/27 09:43:52;;;;;;;0.03;0.03;;;17.50;99.90;;;;;;8379650;28;20030;-80
2023/08/27 09:47:56;;;;;;;0.00;0.00;;;17.50;99.90;;;;;;8359012;28;20040;-80
2023/08/27 09:51:58;;;;;;;0.00;0.00;;;17.60;99.90;;;;;;8358706;28;20025;-80
2023/08/27 09:55:58;;;;;;;0.10;0.10;;;17.20;99.90;;;;;;8362199;28;20052;-78
2023/08/27 10:00:00;;;;;;;0.00;0.00;;;17.20;99.90;;;;;;8384720;28;20476;-78
2023/08/27 10:04:09;;;;;;;0.00;0.00;;;17.10;99.90;;;;;;8389469;28;20035;-79
2023/08/27 10:08:09;;;;;;;0.00;0.00;;;17.10;99.90;;;;;;8380525;28;20513;-79
2023/08/27 10:12:11;;;;;;;0.00;0.00;;;16.90;99.90;;;;;;8378720;28;20035;-77
2023/08/27 10:16:13;;;;;;;0.00;0.00;;;16.90;99.90;;;;;;8377604;28;20101;-77
2023/08/27 10:20:14;;;;;;;0.10;0.10;;;16.90;99.90;;;;;;8391353;28;20103;-78
2023/08/27 10:24:15;;;;;;;0.10;0.10;;;16.70;99.90;;;;;;8396469;28;20032;-78
2023/08/27 10:28:17;;;;;;;0.00;0.00;;;16.50;99.90;;;;;;8379607;28;20615;-79
2023/08/27 10:32:17;;;;;;;0.00;0.00;;;16.40;99.90;;;;;;8390289;28;20568;-79
2023/08/27 10:36:23;;;;;;;0.00;0.00;;;16.50;99.90;;;;;;8391181;28;20511;-79
2023/08/27 10:40:26;;;;;;;0.00;0.00;;;16.50;99.90;;;;;;8401642;28;20024;-78
2023/08/27 10:44:27;;;;;;;0.00;0.00;;;16.60;99.90;;;;;;8375838;28;20029;-80
2023/08/27 10:48:30;;;;;;;0.05;0.05;;;16.60;99.90;;;;;;8402735;28;20036;-79
2023/08/27 10:52:50;;;;;;;0.00;0.00;;;16.60;99.90;;;;;;8400198;28;20024;-79
2023/08/27 10:56:51;;;;;;;0.00;0.00;;;16.50;99.90;;;;;;8404891;28;20088;-79
2023/08/27 11:01:07;;;;;;;0.00;0.00;;;16.40;99.90;;;;;;8385579;28;20266;-79
2023/08/27 11:05:08;;;;;;;0.00;0.00;;;16.40;99.90;;;;;;8410286;28;20539;-78
2023/08/27 11:09:16;;;;;;;0.00;0.00;;;16.30;99.90;;;;;;8388385;28;20029;-78
2023/08/27 11:13:36;;;;;;;0.00;0.00;;;16.40;99.90;;;;;;8383717;28;20117;-78
2023/08/27 11:17:38;;;;;;;0.00;0.00;;;16.50;99.90;;;;;;8386304;28;20612;-78
2023/08/27 11:21:48;;;;;;;0.00;0.00;;;16.70;99.90;;;;;;8379239;28;20025;-78
2023/08/27 11:25:50;;;;;;;0.00;0.00;;;16.60;99.90;;;;;;8393029;28;20856;-79
2023/08/27 11:29:53;;;;;;;2.20;1.08;;;16.60;99.90;;;;;;8395797;28;20035;-78
2023/08/27 11:33:55;;;;;;;0.10;0.10;;;16.80;99.90;;;;;;8416847;28;20403;-78
2023/08/27 11:37:56;;;;;;;0.00;0.00;;;16.80;99.90;;;;;;8376700;28;20027;-78
2023/08/27 11:41:57;;;;;;;0.00;0.00;;;16.60;99.90;;;;;;8381890;28;20013;-78
2023/08/27 11:45:57;;;;;;;0.10;0.10;;;16.50;99.90;;;;;;8380392;28;20032;-78
2023/08/27 11:49:58;;;;;;;0.10;0.10;;;16.40;99.90;;;;;;8380275;28;20025;-78
2023/08/27 11:54:00;;;;;;;0.10;0.10;;;16.40;99.90;;;;;;8421712;28;20031;-77
2023/08/27 11:58:01;;;;;;;0.10;0.10;;;16.40;99.90;;;;;;8397271;28;20056;-77
2023/08/27 12:02:02;;;;;;;0.10;0.10;;;16.50;99.90;;;;;;8394337;28;20025;-77
2023/08/27 12:06:03;;;;;;;0.00;0.00;;;16.90;99.90;;;;;;8390573;28;20055;-77
2023/08/27 12:10:08;;;;;;;0.00;0.00;;;17.30;99.90;;;;;;8394039;28;20033;-77
2023/08/27 12:14:09;;;;;;;0.00;0.00;;;17.20;99.90;;;;;;8394286;28;20127;-77
2023/08/27 12:18:10;;;;;;;0.00;0.00;;;17.10;99.90;;;;;;8394246;28;20031;-78
2023/08/27 12:22:14;;;;;;;0.00;0.00;;;17.00;99.90;;;;;;8406074;28;20082;-77
2023/08/27 12:26:15;;;;;;;0.00;0.00;;;17.10;99.90;;;;;;8386290;28;20031;-77
2023/08/27 12:30:15;;;;;;;0.00;0.00;;;17.10;99.90;;;;;;8391085;28;20031;-77
2023/08/27 12:34:16;;;;;;;0.00;0.00;;;17.20;99.90;;;;;;8407506;28;20484;-77
2023/08/27 12:38:16;;;;;;;0.10;0.10;;;17.30;99.90;;;;;;8396566;28;20048;-77
2023/08/27 12:42:17;;;;;;;0.00;0.00;;;17.50;99.90;;;;;;8410477;28;20027;-76
2023/08/27 12:46:18;;;;;;;0.00;0.00;;;17.60;99.90;;;;;;8413373;28;20122;-76
2023/08/27 12:50:18;;;;;;;0.00;0.00;;;17.80;99.90;;;;;;8390776;28;20028;-76
2023/08/27 12:54:20;;;;;;;0.10;0.10;;;18.20;99.90;;;;;;8399151;28;20046;-76
2023/08/27 12:58:20;;;;;;;0.00;0.00;;;18.20;99.90;;;;;;8379616;28;20023;-76
2023/08/27 13:02:21;;;;;;;0.00;0.00;;;18.50;99.90;;;;;;8369313;28;20374;-76
2023/08/27 13:06:21;;;;;;;0.10;0.10;;;18.80;99.90;;;;;;8381565;28;20036;-77
2023/08/27 13:10:22;;;;;;;0.10;0.10;;;19.10;99.90;;;;;;8377549;28;20028;-76
2023/08/27 13:14:23;;;;;;;0.00;0.00;;;19.00;99.90;;;;;;8378512;28;20085;-76
2023/08/27 13:18:24;;;;;;;0.00;0.00;;;18.80;99.90;;;;;;8365938;28;20051;-76
2023/08/27 13:22:24;;;;;;;0.10;0.10;;;18.80;99.90;;;;;;8390409;28;20037;-76
2023/08/27 13:26:25;;;;;;;0.00;0.00;;;19.10;99.90;;;;;;8373173;28;20024;-76
2023/08/27 13:30:25;;;;;;;0.03;0.03;;;19.20;99.90;;;;;;8386978;28;20405;-76
2023/08/27 13:34:26;;;;;;;0.03;0.03;;;19.00;99.90;;;;;;8396486;28;20035;-76
2023/08/27 13:38:27;;;;;;;0.03;0.03;;;18.90;99.90;;;;;;8375503;28;20567;-77
2023/08/27 13:42:28;;;;;;;0.10;0.10;;;18.90;99.90;;;;;;8381815;28;20086;-76
2023/08/27 13:46:28;;;;;;;0.00;0.00;;;18.80;99.90;;;;;;8404731;28;20021;-76
2023/08/27 13:50:29;;;;;;;0.00;0.00;;;18.60;99.90;;;;;;8376899;28;20037;-76
2023/08/27 13:54:29;;;;;;;0.00;0.00;;;18.30;99.90;;;;;;8394194;28;20039;-76
2023/08/27 13:58:30;;;;;;;0.00;0.00;;;18.00;99.90;;;;;;8368511;28;20016;-76
2023/08/27 14:02:31;;;;;;;0.00;0.00;;;17.80;99.90;;;;;;8385490;28;20464;-76
2023/08/27 14:06:32;;;;;;;0.00;0.00;;;17.70;99.90;;;;;;8363290;28;20029;-76
2023/08/27 14:10:37;;;;;;;0.10;0.10;;;17.70;99.90;;;;;;8365659;28;20082;-76
2023/08/27 14:14:37;;;;;;;0.00;0.00;;;17.70;99.90;;;;;;8371750;28;20024;-78
2023/08/27 14:18:38;;;;;;;0.00;0.00;;;17.50;99.90;;;;;;8360013;28;20082;-76
2023/08/27 14:22:38;;;;;;;0.00;0.00;;;17.40;99.90;;;;;;8374200;28;20574;-77
2023/08/27 14:26:39;;;;;;;0.00;0.00;;;17.50;99.90;;;;;;8373817;28;20119;-76
2023/08/27 14:30:40;;;;;;;0.10;0.10;;;17.50;99.90;;;;;;8388955;28;20039;-77
2023/08/27 14:34:41;;;;;;;0.10;0.10;;;17.60;99.90;;;;;;8379722;28;20029;-77
2023/08/27 14:38:43;;;;;;;0.08;0.08;;;17.80;99.90;;;;;;8392341;28;20020;-76
2023/08/27 14:42:44;;;;;;;0.00;0.00;;;17.80;99.90;;;;;;8393638;28;20020;-77
2023/08/27 14:46:45;;;;;;;0.00;0.00;;;17.50;99.90;;;;;;8397364;28;20020;-76
2023/08/27 14:50:45;;;;;;;0.00;0.00;;;17.30;99.90;;;;;;8391572;28;20052;-76
2023/08/27 14:54:46;;;;;;;0.00;0.00;;;17.00;99.90;;;;;;8393839;28;20837;-76
2023/08/27 14:58:51;;;;;;;0.00;0.00;;;16.90;99.90;;;;;;8379166;28;20119;-76
2023/08/27 15:02:51;;;;;;;0.05;0.05;;;16.80;99.90;;;;;;8379057;28;20029;-76
2023/08/27 15:06:52;;;;;;;0.00;0.00;;;16.70;99.90;;;;;;8372806;28;20489;-76
2023/08/27 15:10:53;;;;;;;0.00;0.00;;;16.70;99.90;;;;;;8367639;28;20075;-76
2023/08/27 15:14:54;;;;;;;0.00;0.00;;;16.60;99.90;;;;;;8386051;28;20028;-76
2023/08/27 15:18:54;;;;;;;0.00;0.00;;;16.50;99.90;;;;;;8378297;28;20043;-76
2023/08/27 15:22:55;;;;;;;0.00;0.00;;;16.40;99.90;;;;;;8385127;28;20025;-75
2023/08/27 15:26:55;;;;;;;0.00;0.00;;;16.40;99.90;;;;;;8416186;28;20039;-75
2023/08/27 15:30:56;;;;;;;0.00;0.00;;;16.30;99.90;;;;;;8396803;28;20103;-75
2023/08/27 15:34:57;;;;;;;0.10;0.10;;;16.20;99.90;;;;;;8409322;28;20079;-77
2023/08/27 15:38:57;;;;;;;0.00;0.00;;;16.20;99.90;;;;;;8390425;28;20020;-76
2023/08/27 15:43:28;;;;;;;0.05;0.05;;;16.20;99.90;;;;;;8419925;28;20073;-75
2023/08/27 15:47:34;;;;;;;0.00;0.00;;;16.30;99.90;;;;;;8378819;28;20023;-76
2023/08/27 15:51:35;;;;;;;0.00;0.00;;;16.30;99.90;;;;;;8389841;28;20020;-76
2023/08/27 15:55:35;;;;;;;0.00;0.00;;;16.10;99.90;;;;;;8391357;28;20024;-76
2023/08/27 15:59:36;;;;;;;0.00;0.00;;;16.10;99.90;;;;;;8395341;28;20016;-76
2023/08/27 16:03:36;;;;;;;0.00;0.00;;;16.10;99.90;;;;;;8410758;28;20032;-76
2023/08/27 16:07:37;;;;;;;0.00;0.00;;;16.00;99.90;;;;;;8418413;28;20080;-76
2023/08/27 16:11:37;;;;;;;0.00;0.00;;;16.10;99.90;;;;;;8417477;28;20024;-76
2023/08/27 16:15:38;;;;;;;0.10;0.10;;;16.30;99.90;;;;;;8390696;28;21394;-77
2023/08/27 16:19:38;;;;;;;0.00;0.00;;;16.20;99.90;;;;;;8382637;28;20084;-76
2023/08/27 16:23:39;;;;;;;0.00;0.00;;;16.10;99.90;;;;;;8413501;28;20064;-76
2023/08/27 16:27:40;;;;;;;0.00;0.00;;;16.10;99.90;;;;;;8391644;28;20081;-77
2023/08/27 16:31:40;;;;;;;0.00;0.00;;;16.10;99.90;;;;;;8390680;28;20021;-76
2023/08/27 16:35:41;;;;;;;0.00;0.00;;;16.10;99.90;;;;;;8390120;28;20023;-75
2023/08/27 16:39:41;;;;;;;0.00;0.00;;;16.10;99.90;;;;;;8389067;28;20066;-77
2023/08/27 16:43:42;;;;;;;0.10;0.10;;;16.00;99.90;;;;;;8383109;28;20024;-76
2023/08/27 16:47:43;;;;;;;0.03;0.03;;;15.80;99.90;;;;;;8394742;28;20060;-77
2023/08/27 16:51:44;;;;;;;0.10;0.10;;;15.50;99.90;;;;;;8393279;28;20081;-76
2023/08/27 16:55:46;;;;;;;0.03;0.03;;;15.40;99.90;;;;;;8398899;28;20059;-76
2023/08/27 16:59:46;;;;;;;0.00;0.00;;;15.60;99.90;;;;;;8411243;28;20095;-75
2023/08/27 17:03:47;;;;;;;0.00;0.00;;;15.50;99.90;;;;;;8390857;28;20035;-76
2023/08/27 17:07:47;;;;;;;0.00;0.00;;;15.50;99.90;;;;;;8411182;28;20020;-76
2023/08/27 17:11:48;;;;;;;0.00;0.00;;;15.40;99.90;;;;;;8396008;28;20020;-76
2023/08/27 17:15:48;;;;;;;0.10;0.10;;;15.50;99.90;;;;;;8405485;28;20046;-77
2023/08/27 17:19:49;;;;;;;0.00;0.00;;;15.40;99.90;;;;;;8393708;28;20109;-75
2023/08/27 17:23:49;;;;;;;0.00;0.00;;;15.30;99.90;;;;;;8409626;28;20423;-75
2023/08/27 17:27:50;;;;;;;0.10;0.10;;;15.30;99.90;;;;;;8420588;28;20024;-75
2023/08/27 17:31:51;;;;;;;0.00;0.00;;;15.20;99.90;;;;;;8410986;28;20441;-75
2023/08/27 17:35:51;;;;;;;0.00;0.00;;;15.30;99.90;;;;;;8399257;28;20111;-76
2023/08/27 17:39:52;;;;;;;0.00;0.00;;;15.20;99.90;;;;;;8415298;28;20439;-76
2023/08/27 17:43:53;;;;;;;0.10;0.10;;;15.10;99.90;;;;;;8386499;28;20399;-76
2023/08/27 17:48:05;;;;;;;0.00;0.00;;;15.20;99.90;;;;;;8392099;28;20107;-76
2023/08/27 17:52:06;;;;;;;0.00;0.00;;;15.20;99.90;;;;;;8391450;28;20020;-76
2023/08/27 17:56:06;;;;;;;0.00;0.00;;;15.10;99.90;;;;;;8385194;28;20400;-77
2023/08/27 18:00:07;;;;;;;0.10;0.10;;;15.00;99.90;;;;;;8381541;28;20044;-77
2023/08/27 18:04:08;;;;;;;0.00;0.00;;;14.80;99.90;;;;;;8392770;28;20032;-77
2023/08/27 18:08:08;;;;;;;0.00;0.00;;;15.10;99.90;;;;;;8415584;28;20081;-76
2023/08/27 18:12:09;;;;;;;0.03;0.03;;;14.90;99.90;;;;;;8401925;28;20043;-75
2023/08/27 18:16:12;;;;;;;0.10;0.10;;;14.80;99.90;;;;;;8372853;28;20028;-76
2023/08/27 18:20:13;;;;;;;0.10;0.10;;;14.80;99.90;;;;;;8388270;28;20400;-76
2023/08/27 18:24:13;;;;;;;0.05;0.05;;;14.80;99.90;;;;;;8382808;28;20040;-75
2023/08/27 18:28:14;;;;;;;0.00;0.00;;;14.70;99.90;;;;;;8399863;28;20021;-76
2023/08/27 18:32:14;;;;;;;0.00;0.00;;;14.60;99.90;;;;;;8394752;28;20098;-77
2023/08/27 18:36:15;;;;;;;0.00;0.00;;;14.60;99.90;;;;;;8413103;28;20032;-75
2023/08/27 18:40:15;;;;;;;0.10;0.10;;;14.80;99.90;;;;;;8368813;28;20059;-76
2023/08/27 18:44:16;;;;;;;0.00;0.00;;;14.60;99.90;;;;;;8393644;28;20616;-76
2023/08/27 18:48:17;;;;;;;0.10;0.10;;;14.70;99.90;;;;;;8373032;28;20029;-75
2023/08/27 18:52:17;;;;;;;0.00;0.00;;;14.70;99.90;;;;;;8383565;28;20178;-75
2023/08/27 18:56:18;;;;;;;0.00;0.00;;;14.70;99.90;;;;;;8391390;28;20067;-77
2023/08/27 19:00:18;;;;;;;0.10;0.10;;;15.00;99.90;;;;;;8377742;28;20023;-77
2023/08/27 19:04:21;;;;;;;0.00;0.00;;;14.90;99.90;;;;;;8383325;28;20032;-76
2023/08/27 19:08:21;;;;;;;0.00;0.00;;;14.70;99.90;;;;;;8373353;28;20035;-77
2023/08/27 19:12:22;;;;;;;0.00;0.00;;;14.70;99.90;;;;;;8369724;28;20025;-76
2023/08/27 19:16:23;;;;;;;0.00;0.00;;;14.60;99.90;;;;;;8366999;28;20059;-76
2023/08/27 19:20:23;;;;;;;0.13;0.13;;;14.60;99.90;;;;;;8395874;28;20025;-75
2023/08/27 19:24:24;;;;;;;0.00;0.00;;;14.50;99.90;;;;;;8396557;28;20105;-76
2023/08/27 19:28:25;;;;;;;0.10;0.10;;;14.60;99.90;;;;;;8394827;28;20063;-76
2023/08/27 19:32:25;;;;;;;0.00;0.00;;;14.70;99.90;;;;;;8377196;28;20040;-76
2023/08/27 19:36:26;;;;;;;0.00;0.00;;;14.70;99.90;;;;;;8391008;28;20024;-77
2023/08/27 19:40:27;;;;;;;0.00;0.00;;;14.90;99.90;;;;;;8379500;28;20024;-76
2023/08/27 19:44:27;;;;;;;0.03;0.03;;;14.80;99.90;;;;;;8377067;28;20032;-77
2023/08/27 19:48:32;;;;;;;0.00;0.00;;;14.90;99.90;;;;;;8371872;28;20021;-77
2023/08/27 19:52:33;;;;;;;0.00;0.00;;;14.80;99.90;;;;;;8382210;28;20074;-75
2023/08/27 19:56:34;;;;;;;0.00;0.00;;;14.70;99.90;;;;;;8372828;28;20117;-77
2023/08/27 20:00:35;;;;;;;0.00;0.00;;;14.60;99.90;;;;;;8387261;28;20027;-77
2023/08/27 20:04:35;;;;;;;0.00;0.00;;;14.60;99.90;;;;;;8402977;28;20028;-76
2023/08/27 20:08:36;;;;;;;0.00;0.00;;;14.80;99.90;;;;;;8378857;28;20056;-76
2023/08/27 20:12:36;;;;;;;0.10;0.10;;;14.60;99.90;;;;;;8380175;28;20773;-76
2023/08/27 20:16:37;;;;;;;0.00;0.00;;;14.60;99.90;;;;;;8384134;28;20031;-76
2023/08/27 20:20:39;;;;;;;0.10;0.10;;;14.50;99.90;;;;;;8401664;28;20488;-77
2023/08/27 20:24:39;;;;;;;0.00;0.00;;;14.60;99.90;;;;;;8389353;28;20020;-76
2023/08/27 20:28:40;;;;;;;0.15;0.15;;;14.60;99.90;;;;;;8389198;28;20032;-76
2023/08/27 20:32:41;;;;;;;0.00;0.00;;;14.50;99.90;;;;;;8389277;28;20492;-76
2023/08/27 20:36:42;;;;;;;0.08;0.08;;;14.50;99.90;;;;;;8404654;28;20021;-77
2023/08/27 20:40:42;;;;;;;0.32;0.30;;;14.40;99.90;;;;;;8394376;28;20020;-77
2023/08/27 20:44:45;;;;;;;0.00;0.00;;;14.40;99.90;;;;;;8381481;28;20025;-77
2023/08/27 20:48:46;;;;;;;0.10;0.10;;;14.40;99.90;;;;;;8383638;28;20031;-76
2023/08/27 20:52:46;;;;;;;0.00;0.00;;;14.30;99.90;;;;;;8390155;28;20626;-77
2023/08/27 20:56:47;;;;;;;0.00;0.00;;;14.30;99.90;;;;;;8398895;28;20055;-77
2023/08/27 21:00:47;;;;;;;0.00;0.00;;;14.30;99.90;;;;;;8394100;28;20023;-77